Terminal Aerodrome Forecast
Issued by NWS

Home | Current Version | Previous Version | Text Only | Print | Product List | Glossary On
Versions: 1 2 3 4 5 6 7 8 9 10 11 12 13 14
000
FTUS43 KAPX 261120
TAFTVC
TAF
KTVC 261120Z 2612/2712 VRB03KT P6SM FEW200
     FM262000 24007KT P6SM BKN200
     FM270300 26005KT P6SM VCSH BKN060
     FM270600 34005KT P6SM OVC022=

USA.gov is the U.S. government's official web portal to all federal, state and local government web resources and services.